createdAt,value
2023-04-30T00:00:50.561Z,0.00
2023-04-30T00:01:50.581Z,0.00
2023-04-30T00:02:50.665Z,0.00
2023-04-30T00:03:50.687Z,0.00
2023-04-30T00:04:50.621Z,0.00
2023-04-30T00:05:50.547Z,0.00
2023-04-30T00:06:50.570Z,0.00
2023-04-30T00:07:50.564Z,0.00
2023-04-30T00:08:50.554Z,0.00
2023-04-30T00:09:50.546Z,0.00
2023-04-30T00:10:50.551Z,0.00
2023-04-30T00:11:50.541Z,0.00
2023-04-30T00:12:50.533Z,0.00
2023-04-30T00:13:50.529Z,0.00
2023-04-30T00:14:50.560Z,0.00
2023-04-30T00:15:50.637Z,0.00
2023-04-30T00:16:50.753Z,0.00
2023-04-30T00:17:50.605Z,0.00
2023-04-30T00:18:50.516Z,0.00
2023-04-30T00:19:50.576Z,0.00
2023-04-30T00:20:50.519Z,0.00
2023-04-30T00:21:50.501Z,0.00
2023-04-30T00:22:50.507Z,0.00
2023-04-30T00:23:50.491Z,0.00
2023-04-30T00:24:50.507Z,0.00
2023-04-30T00:25:50.498Z,0.00
2023-04-30T00:26:50.514Z,0.00
2023-04-30T00:27:50.498Z,0.00
2023-04-30T00:28:50.484Z,0.00
2023-04-30T00:29:50.485Z,0.00
2023-04-30T00:30:50.480Z,0.00
2023-04-30T00:31:50.507Z,0.00
2023-04-30T00:32:50.551Z,0.00
2023-04-30T00:33:50.580Z,0.00
2023-04-30T00:34:50.476Z,0.00
2023-04-30T00:35:50.499Z,0.00
2023-04-30T00:36:50.460Z,0.00
2023-04-30T00:37:50.472Z,0.00
2023-04-30T00:38:50.472Z,0.00
2023-04-30T00:39:50.494Z,0.00
2023-04-30T00:40:50.455Z,0.00
2023-04-30T00:41:50.456Z,0.00
2023-04-30T00:42:50.455Z,0.00
2023-04-30T00:43:50.451Z,0.00
2023-04-30T00:44:50.476Z,0.00
2023-04-30T00:45:50.481Z,0.00
2023-04-30T00:46:50.464Z,0.00
2023-04-30T00:47:50.480Z,0.00
2023-04-30T00:48:50.449Z,0.00
2023-04-30T00:49:50.430Z,0.00
2023-04-30T00:50:50.443Z,0.00
2023-04-30T00:51:50.434Z,0.00
2023-04-30T00:52:50.441Z,0.00
2023-04-30T00:53:50.426Z,0.00
2023-04-30T00:54:50.410Z,0.00
2023-04-30T00:55:50.420Z,0.00
2023-04-30T00:56:50.420Z,0.00
2023-04-30T00:57:50.416Z,0.00
2023-04-30T00:58:50.417Z,0.00
2023-04-30T00:59:50.405Z,0.00
2023-04-30T01:00:50.416Z,0.00
2023-04-30T01:01:50.410Z,0.00
2023-04-30T01:02:50.513Z,0.00
2023-04-30T01:03:50.517Z,0.00
2023-04-30T01:04:50.401Z,0.00
2023-04-30T01:05:50.371Z,0.00
2023-04-30T01:06:50.384Z,0.00
2023-04-30T01:07:50.397Z,0.00
2023-04-30T01:08:50.369Z,0.00
2023-04-30T01:09:50.375Z,0.00
2023-04-30T01:10:50.359Z,0.00
2023-04-30T01:11:50.406Z,0.00
2023-04-30T01:12:50.376Z,0.00
2023-04-30T01:13:50.359Z,0.00
2023-04-30T01:14:50.349Z,0.00
2023-04-30T01:15:50.371Z,0.00
2023-04-30T01:16:50.357Z,0.00
2023-04-30T01:17:50.396Z,0.00
2023-04-30T01:18:50.423Z,0.00
2023-04-30T01:19:50.330Z,0.00
2023-04-30T01:20:50.351Z,0.00
2023-04-30T01:21:50.335Z,0.00
2023-04-30T01:22:50.335Z,0.00
2023-04-30T01:23:50.343Z,0.00
2023-04-30T01:24:50.349Z,0.00
2023-04-30T01:25:50.324Z,0.00
2023-04-30T01:26:50.335Z,0.00
2023-04-30T01:27:50.324Z,0.00
2023-04-30T01:28:50.315Z,0.00
2023-04-30T01:29:50.299Z,0.00
2023-04-30T01:30:50.324Z,0.00
2023-04-30T01:31:50.454Z,0.00
2023-04-30T01:32:50.400Z,0.00
2023-04-30T01:33:50.291Z,0.00
2023-04-30T01:34:50.287Z,0.00
2023-04-30T01:35:50.277Z,0.00
2023-04-30T01:36:50.297Z,0.00
2023-04-30T01:37:50.291Z,0.00
2023-04-30T01:38:50.283Z,0.00
2023-04-30T01:39:50.316Z,0.00
2023-04-30T01:40:50.292Z,0.00
2023-04-30T01:41:50.301Z,0.00
2023-04-30T01:42:50.280Z,0.00
2023-04-30T01:43:50.275Z,0.00
2023-04-30T01:44:50.274Z,0.00
2023-04-30T01:45:50.330Z,0.00
2023-04-30T01:46:50.273Z,0.00
2023-04-30T01:47:50.305Z,0.00
2023-04-30T01:48:50.257Z,0.00
2023-04-30T01:49:50.265Z,0.00
2023-04-30T01:50:50.263Z,0.00
2023-04-30T01:51:50.257Z,0.00
2023-04-30T01:52:50.260Z,0.00
2023-04-30T01:53:50.257Z,0.00
2023-04-30T01:54:50.258Z,0.00
2023-04-30T01:55:50.287Z,0.00
2023-04-30T01:56:50.264Z,0.00
2023-04-30T01:57:50.216Z,0.00
2023-04-30T01:58:50.244Z,0.00
2023-04-30T01:59:50.228Z,0.00
2023-04-30T02:00:50.251Z,0.00
2023-04-30T02:01:50.281Z,0.00
2023-04-30T02:02:50.298Z,0.00
2023-04-30T02:03:50.362Z,0.00
2023-04-30T02:04:50.209Z,0.00
2023-04-30T02:05:50.249Z,0.00
2023-04-30T02:06:50.222Z,0.00
2023-04-30T02:07:50.198Z,0.00
2023-04-30T02:08:50.207Z,0.00
2023-04-30T02:09:50.199Z,0.00
2023-04-30T02:10:50.206Z,0.00
2023-04-30T02:11:50.216Z,0.00
2023-04-30T02:12:50.182Z,0.00
2023-04-30T02:13:50.200Z,0.00
2023-04-30T02:14:50.187Z,0.00
2023-04-30T02:15:50.216Z,0.00
2023-04-30T02:16:50.186Z,0.00
2023-04-30T02:17:50.230Z,0.00
2023-04-30T02:18:50.185Z,0.00
2023-04-30T02:19:50.169Z,0.00
2023-04-30T02:20:50.175Z,0.00
2023-04-30T02:21:50.147Z,0.00
2023-04-30T02:22:50.176Z,0.00
2023-04-30T02:23:50.141Z,0.00
2023-04-30T02:24:50.156Z,0.00
2023-04-30T02:25:50.135Z,0.00
2023-04-30T02:26:50.147Z,0.00
2023-04-30T02:27:50.146Z,0.00
2023-04-30T02:28:50.123Z,0.00
2023-04-30T02:29:50.126Z,0.00
2023-04-30T02:30:50.137Z,0.00
2023-04-30T02:31:50.146Z,0.00
2023-04-30T02:32:50.159Z,0.00
2023-04-30T02:33:50.118Z,0.00
2023-04-30T02:34:50.130Z,0.00
2023-04-30T02:35:50.102Z,0.00
2023-04-30T02:36:50.128Z,0.00
2023-04-30T02:37:50.110Z,0.00
2023-04-30T02:38:50.109Z,0.00
2023-04-30T02:39:50.104Z,0.00
2023-04-30T02:40:50.106Z,0.00
2023-04-30T02:41:50.101Z,0.00
2023-04-30T02:42:50.092Z,0.00
2023-04-30T02:43:50.099Z,0.00
2023-04-30T02:44:50.096Z,0.00
2023-04-30T02:45:50.203Z,0.00
2023-04-30T02:46:50.091Z,0.00
2023-04-30T02:47:50.115Z,0.00
2023-04-30T02:48:50.084Z,0.00
2023-04-30T02:49:50.074Z,0.00
2023-04-30T02:50:50.069Z,0.00
2023-04-30T02:51:50.062Z,0.00
2023-04-30T02:52:50.048Z,0.00
2023-04-30T02:53:50.058Z,0.00
2023-04-30T02:54:50.062Z,0.00
2023-04-30T02:55:50.040Z,0.00
2023-04-30T02:56:50.054Z,0.00
2023-04-30T02:57:50.057Z,0.00
2023-04-30T02:58:50.036Z,0.00
2023-04-30T02:59:50.088Z,0.00
2023-04-30T03:00:50.047Z,0.00
2023-04-30T03:01:50.096Z,0.00
2023-04-30T03:02:50.163Z,0.00
2023-04-30T03:03:50.019Z,0.00
2023-04-30T03:04:50.025Z,0.00
2023-04-30T03:05:50.043Z,0.00
2023-04-30T03:06:50.029Z,0.00
2023-04-30T03:07:50.004Z,0.00
2023-04-30T03:08:50.016Z,0.00
2023-04-30T03:09:50.009Z,0.00
2023-04-30T03:10:50.015Z,0.00
2023-04-30T03:11:50.022Z,0.00
2023-04-30T03:12:50.013Z,0.00
2023-04-30T03:13:49.998Z,0.00
2023-04-30T03:14:49.995Z,0.00
2023-04-30T03:15:50.001Z,0.00
2023-04-30T03:16:49.976Z,0.00
2023-04-30T03:17:50.006Z,0.00
2023-04-30T03:18:49.966Z,0.00
2023-04-30T03:19:49.997Z,0.00
2023-04-30T03:20:49.973Z,0.00
2023-04-30T03:21:49.983Z,0.00
2023-04-30T03:22:49.982Z,0.00
2023-04-30T03:23:49.961Z,0.00
2023-04-30T03:24:49.955Z,0.00
2023-04-30T03:25:49.959Z,0.00
2023-04-30T03:26:49.964Z,0.00
2023-04-30T03:27:49.977Z,0.00
2023-04-30T03:28:49.950Z,0.00
2023-04-30T03:29:49.958Z,0.00
2023-04-30T03:30:49.944Z,0.00
2023-04-30T03:31:50.037Z,0.00
2023-04-30T03:32:49.953Z,0.00
2023-04-30T03:33:50.013Z,0.00
2023-04-30T03:34:49.928Z,0.00
2023-04-30T03:35:49.928Z,0.00
2023-04-30T03:36:49.939Z,0.00
2023-04-30T03:37:49.964Z,0.00
2023-04-30T03:38:49.908Z,0.00
2023-04-30T03:39:49.903Z,0.00
2023-04-30T03:40:49.916Z,0.00
2023-04-30T03:41:49.925Z,0.00
2023-04-30T03:42:51.336Z,0.00
2023-04-30T03:43:49.899Z,0.00
2023-04-30T03:44:49.912Z,0.00
2023-04-30T03:45:49.931Z,0.00
2023-04-30T03:46:49.884Z,0.00
2023-04-30T03:47:49.967Z,0.00
2023-04-30T03:48:49.883Z,0.00
2023-04-30T03:49:49.894Z,0.00
2023-04-30T03:50:49.883Z,0.00
2023-04-30T03:51:49.884Z,0.00
2023-04-30T03:52:49.872Z,0.00
2023-04-30T03:53:49.882Z,0.00
2023-04-30T03:54:49.865Z,0.00
2023-04-30T03:55:49.877Z,0.00
2023-04-30T03:56:49.859Z,0.00
2023-04-30T03:57:49.872Z,0.00
2023-04-30T03:58:49.870Z,0.00
2023-04-30T03:59:49.860Z,0.00
2023-04-30T04:00:49.870Z,0.00
2023-04-30T04:01:49.927Z,0.00
2023-04-30T04:02:49.865Z,0.00
2023-04-30T04:03:49.901Z,0.00
2023-04-30T04:04:49.841Z,0.00
2023-04-30T04:05:49.865Z,0.00
2023-04-30T04:06:49.824Z,0.00
2023-04-30T04:07:49.833Z,0.00
2023-04-30T04:08:49.834Z,0.00
2023-04-30T04:09:49.838Z,0.00
2023-04-30T04:10:49.829Z,0.00
2023-04-30T04:11:49.814Z,0.00
2023-04-30T04:12:49.833Z,0.00
2023-04-30T04:13:49.842Z,0.00
2023-04-30T04:14:49.824Z,0.00
2023-04-30T04:15:49.943Z,0.00
2023-04-30T04:16:49.815Z,0.00
2023-04-30T04:17:49.889Z,0.00
2023-04-30T04:18:49.804Z,0.00
2023-04-30T04:19:49.821Z,0.00
2023-04-30T04:20:49.804Z,0.00
2023-04-30T04:21:49.799Z,0.00
2023-04-30T04:22:49.790Z,0.00
2023-04-30T04:23:49.820Z,0.00
2023-04-30T04:24:49.799Z,0.00
2023-04-30T04:25:49.788Z,0.00
2023-04-30T04:26:49.782Z,0.00
2023-04-30T04:27:49.778Z,0.00
2023-04-30T04:28:49.781Z,0.00
2023-04-30T04:29:49.777Z,0.00
2023-04-30T04:30:49.747Z,0.00
2023-04-30T04:31:49.758Z,0.00
2023-04-30T04:32:49.774Z,0.00
2023-04-30T04:33:49.757Z,0.00
2023-04-30T04:34:49.755Z,0.00
2023-04-30T04:35:49.761Z,0.00
2023-04-30T04:36:49.746Z,0.00
2023-04-30T04:37:49.738Z,0.00
2023-04-30T04:38:49.725Z,0.00
2023-04-30T04:39:49.748Z,0.00
2023-04-30T04:40:49.755Z,0.00
2023-04-30T04:41:49.720Z,0.00
2023-04-30T04:42:49.713Z,0.00
2023-04-30T04:43:49.713Z,0.00
2023-04-30T04:44:49.704Z,0.00
2023-04-30T04:45:49.746Z,0.00
2023-04-30T04:46:49.722Z,0.00
2023-04-30T04:47:49.767Z,0.00
2023-04-30T04:48:49.693Z,0.00
2023-04-30T04:49:49.715Z,0.00
2023-04-30T04:50:49.679Z,0.00
2023-04-30T04:51:49.815Z,0.00
2023-04-30T04:52:49.671Z,0.00
2023-04-30T04:53:49.688Z,0.00
2023-04-30T04:54:49.679Z,0.00
2023-04-30T04:55:49.684Z,0.00
2023-04-30T04:56:49.664Z,0.00
2023-04-30T04:57:49.667Z,0.00
2023-04-30T04:58:49.659Z,0.00
2023-04-30T04:59:49.688Z,0.00
2023-04-30T05:00:49.648Z,0.00
2023-04-30T05:01:49.740Z,0.00
2023-04-30T05:02:49.719Z,0.00
2023-04-30T05:03:50.020Z,5.63
2023-04-30T05:04:49.637Z,5.63
2023-04-30T05:05:49.635Z,5.63
2023-04-30T05:06:49.628Z,11.25
2023-04-30T05:07:49.823Z,11.25
2023-04-30T05:08:49.643Z,11.25
2023-04-30T05:09:49.637Z,11.25
2023-04-30T05:10:49.619Z,11.25
2023-04-30T05:11:49.625Z,11.25
2023-04-30T05:12:49.625Z,11.25
2023-04-30T05:13:49.606Z,11.25
2023-04-30T05:14:49.613Z,11.25
2023-04-30T05:15:49.631Z,11.25
2023-04-30T05:16:49.614Z,11.25
2023-04-30T05:17:49.662Z,11.25
2023-04-30T05:18:49.614Z,16.88
2023-04-30T05:19:49.598Z,16.88
2023-04-30T05:20:49.595Z,16.88
2023-04-30T05:21:49.596Z,16.88
2023-04-30T05:22:49.615Z,16.88
2023-04-30T05:23:49.613Z,16.88
2023-04-30T05:24:49.578Z,16.88
2023-04-30T05:25:49.589Z,16.88
2023-04-30T05:26:49.584Z,16.88
2023-04-30T05:27:49.569Z,16.88
2023-04-30T05:28:49.563Z,16.88
2023-04-30T05:29:49.576Z,16.88
2023-04-30T05:30:49.556Z,22.50
2023-04-30T05:31:49.617Z,22.50
2023-04-30T05:32:49.605Z,22.50
2023-04-30T05:33:49.560Z,22.50
2023-04-30T05:34:49.572Z,22.50
2023-04-30T05:35:49.553Z,22.50
2023-04-30T05:36:49.546Z,22.50
2023-04-30T05:37:49.564Z,22.50
2023-04-30T05:38:49.546Z,22.50
2023-04-30T05:39:49.556Z,22.50
2023-04-30T05:40:49.541Z,22.50
2023-04-30T05:41:50.708Z,28.13
2023-04-30T05:42:49.527Z,28.13
2023-04-30T05:43:49.540Z,28.13
2023-04-30T05:44:49.527Z,33.75
2023-04-30T05:45:49.574Z,33.75
2023-04-30T05:46:49.518Z,33.75
2023-04-30T05:47:49.526Z,33.75
2023-04-30T05:48:49.512Z,39.38
2023-04-30T05:49:49.532Z,39.38
2023-04-30T05:50:49.510Z,39.38
2023-04-30T05:51:49.526Z,45.00
2023-04-30T05:52:49.487Z,45.00
2023-04-30T05:53:49.525Z,45.00
2023-04-30T05:54:50.157Z,50.63
2023-04-30T05:55:49.522Z,50.63
2023-04-30T05:56:49.502Z,56.25
2023-04-30T05:57:49.479Z,61.88
2023-04-30T05:58:49.496Z,95.63
2023-04-30T05:59:49.511Z,135.00
2023-04-30T06:00:49.479Z,135.00
2023-04-30T06:01:49.560Z,73.13
2023-04-30T06:02:49.503Z,56.25
2023-04-30T06:03:49.497Z,84.38
2023-04-30T06:04:49.512Z,73.13
2023-04-30T06:05:49.673Z,56.25
2023-04-30T06:06:49.567Z,39.38
2023-04-30T06:07:49.463Z,28.13
2023-04-30T06:08:49.452Z,67.50
2023-04-30T06:09:49.471Z,78.75
2023-04-30T06:10:49.465Z,22.50
2023-04-30T06:11:49.580Z,16.88
2023-04-30T06:12:49.466Z,11.25
2023-04-30T06:13:49.464Z,5.63
2023-04-30T06:14:49.463Z,5.63
2023-04-30T06:15:49.455Z,5.63
2023-04-30T06:16:49.495Z,5.63
2023-04-30T06:17:49.454Z,5.63
2023-04-30T06:18:51.256Z,5.63
2023-04-30T06:19:49.443Z,5.63
2023-04-30T06:20:49.451Z,5.63
2023-04-30T06:21:49.445Z,5.63
2023-04-30T06:22:49.436Z,5.63
2023-04-30T06:23:49.440Z,5.63
2023-04-30T06:24:49.432Z,5.63
2023-04-30T06:25:49.418Z,5.63
2023-04-30T06:26:49.422Z,5.63
2023-04-30T06:27:49.449Z,5.63
2023-04-30T06:28:49.414Z,5.63
2023-04-30T06:29:49.411Z,5.63
2023-04-30T06:30:49.420Z,5.63
2023-04-30T06:31:49.427Z,5.63
2023-04-30T06:32:49.404Z,5.63
2023-04-30T06:33:49.414Z,5.63
2023-04-30T06:34:49.409Z,5.63
2023-04-30T06:35:49.407Z,5.63
2023-04-30T06:36:49.400Z,5.63
2023-04-30T06:37:49.398Z,5.63
2023-04-30T06:38:49.380Z,5.63
2023-04-30T06:39:49.408Z,5.63
2023-04-30T06:40:49.381Z,5.63
2023-04-30T06:41:49.391Z,5.63
2023-04-30T06:42:49.378Z,5.63
2023-04-30T06:43:49.393Z,5.63
2023-04-30T06:44:49.378Z,5.63
2023-04-30T06:45:49.417Z,5.63
2023-04-30T06:46:49.370Z,5.63
2023-04-30T06:47:49.381Z,5.63
2023-04-30T06:48:49.364Z,5.63
2023-04-30T06:49:49.382Z,5.63
2023-04-30T06:50:49.364Z,5.63
2023-04-30T06:51:49.380Z,5.63
2023-04-30T06:52:49.357Z,5.63
2023-04-30T06:53:49.341Z,5.63
2023-04-30T06:54:49.348Z,5.63
2023-04-30T06:55:49.347Z,5.63
2023-04-30T06:56:49.332Z,5.63
2023-04-30T06:57:49.340Z,5.63
2023-04-30T06:58:49.365Z,5.63
2023-04-30T06:59:49.368Z,5.63
2023-04-30T07:00:49.343Z,5.63
2023-04-30T07:01:49.377Z,5.63
2023-04-30T07:02:49.389Z,5.63
2023-04-30T07:03:49.587Z,5.63
2023-04-30T07:04:49.468Z,5.63
2023-04-30T07:05:49.318Z,5.63
2023-04-30T07:06:49.322Z,5.63
2023-04-30T07:07:49.330Z,5.63
2023-04-30T07:08:49.322Z,5.63
2023-04-30T07:09:51.529Z,5.63
2023-04-30T07:10:49.307Z,5.63
2023-04-30T07:11:49.320Z,5.63
2023-04-30T07:12:49.305Z,11.25
2023-04-30T07:13:49.297Z,11.25
2023-04-30T07:14:49.291Z,11.25
2023-04-30T07:15:49.314Z,16.88
2023-04-30T07:16:49.292Z,16.88
2023-04-30T07:17:49.349Z,22.50
2023-04-30T07:18:49.301Z,28.13
2023-04-30T07:19:49.305Z,39.38
2023-04-30T07:20:49.277Z,45.00
2023-04-30T07:21:49.279Z,45.00
2023-04-30T07:22:49.275Z,50.63
2023-04-30T07:23:49.265Z,50.63
2023-04-30T07:24:49.266Z,50.63
2023-04-30T07:25:49.279Z,56.25
2023-04-30T07:26:49.257Z,56.25
2023-04-30T07:27:49.239Z,56.25
2023-04-30T07:28:49.272Z,61.88
2023-04-30T07:29:49.254Z,61.88
2023-04-30T07:30:49.247Z,61.88
2023-04-30T07:31:49.311Z,61.88
2023-04-30T07:32:49.309Z,61.88
2023-04-30T07:33:49.236Z,61.88
2023-04-30T07:34:49.256Z,61.88
2023-04-30T07:35:49.260Z,61.88
2023-04-30T07:36:49.246Z,61.88
2023-04-30T07:37:49.232Z,67.50
2023-04-30T07:38:49.244Z,84.38
2023-04-30T07:39:49.286Z,84.38
2023-04-30T07:40:49.226Z,84.38
2023-04-30T07:41:49.233Z,78.75
2023-04-30T07:42:49.218Z,73.13
2023-04-30T07:43:49.244Z,67.50
2023-04-30T07:44:49.216Z,61.88
2023-04-30T07:45:49.253Z,56.25
2023-04-30T07:46:49.214Z,50.63
2023-04-30T07:47:49.297Z,45.00
2023-04-30T07:48:49.210Z,45.00
2023-04-30T07:49:49.419Z,45.00
2023-04-30T07:50:50.769Z,45.00
2023-04-30T07:51:49.201Z,45.00
2023-04-30T07:52:49.218Z,45.00
2023-04-30T07:53:49.189Z,50.63
2023-04-30T07:54:49.201Z,61.88
2023-04-30T07:55:49.187Z,50.63
2023-04-30T07:56:49.193Z,45.00
2023-04-30T07:57:49.205Z,45.00
2023-04-30T07:58:49.206Z,45.00
2023-04-30T07:59:51.370Z,45.00
2023-04-30T08:00:49.203Z,45.00
2023-04-30T08:01:49.215Z,45.00
2023-04-30T08:02:49.296Z,45.00
2023-04-30T08:03:49.342Z,45.00
2023-04-30T08:04:49.220Z,50.63
2023-04-30T08:05:49.177Z,50.63
2023-04-30T08:06:49.342Z,56.25
2023-04-30T08:07:49.191Z,67.50
2023-04-30T08:08:50.498Z,90.00
2023-04-30T08:09:49.182Z,84.38
2023-04-30T08:10:49.175Z,78.75
2023-04-30T08:11:49.191Z,67.50
2023-04-30T08:12:49.205Z,67.50
2023-04-30T08:13:49.178Z,95.63
2023-04-30T08:14:49.187Z,112.50
2023-04-30T08:15:49.163Z,95.63
2023-04-30T08:16:49.200Z,90.00
2023-04-30T08:17:49.267Z,101.25
2023-04-30T08:18:49.180Z,118.13
2023-04-30T08:19:49.200Z,112.50
2023-04-30T08:20:49.161Z,123.75
2023-04-30T08:21:49.173Z,208.13
2023-04-30T08:22:49.186Z,208.13
2023-04-30T08:23:49.155Z,151.88
2023-04-30T08:24:49.181Z,140.63
2023-04-30T08:25:49.160Z,219.38
2023-04-30T08:26:49.158Z,331.88
2023-04-30T08:27:49.179Z,309.38
2023-04-30T08:28:49.168Z,354.38
2023-04-30T08:29:49.181Z,540.00
2023-04-30T08:30:49.164Z,562.50
2023-04-30T08:31:49.207Z,540.00
2023-04-30T08:32:49.212Z,545.63
2023-04-30T08:33:49.155Z,585.00
2023-04-30T08:34:49.156Z,579.38
2023-04-30T08:35:49.191Z,556.88
2023-04-30T08:36:49.152Z,500.63
2023-04-30T08:37:49.175Z,410.63
2023-04-30T08:38:49.153Z,247.50
2023-04-30T08:39:49.149Z,118.13
2023-04-30T08:40:51.575Z,78.75
2023-04-30T08:41:49.130Z,50.63
2023-04-30T08:42:49.147Z,28.13
2023-04-30T08:43:49.137Z,22.50
2023-04-30T08:44:49.173Z,22.50
2023-04-30T08:45:49.154Z,22.50
2023-04-30T08:46:49.139Z,16.88
2023-04-30T08:47:49.152Z,16.88
2023-04-30T08:48:49.149Z,16.88
2023-04-30T08:49:49.138Z,11.25
2023-04-30T08:50:49.129Z,11.25
2023-04-30T08:51:49.146Z,11.25
2023-04-30T08:52:49.129Z,11.25
2023-04-30T08:53:49.134Z,11.25
2023-04-30T08:54:49.107Z,11.25
2023-04-30T08:55:49.149Z,11.25
2023-04-30T08:56:49.101Z,11.25
2023-04-30T08:57:49.120Z,11.25
2023-04-30T08:58:49.126Z,11.25
2023-04-30T08:59:49.122Z,11.25
2023-04-30T09:00:49.100Z,5.63
2023-04-30T09:01:50.592Z,5.63
2023-04-30T09:02:49.179Z,5.63
2023-04-30T09:03:49.211Z,5.63
2023-04-30T09:04:49.083Z,5.63
2023-04-30T09:05:49.089Z,5.63
2023-04-30T09:06:49.195Z,5.63
2023-04-30T09:08:02.414Z,5.63
2023-04-30T09:08:49.109Z,5.63
2023-04-30T09:09:49.089Z,5.63
2023-04-30T09:10:49.071Z,5.63
2023-04-30T09:11:49.068Z,5.63
2023-04-30T09:12:49.071Z,5.63
2023-04-30T09:13:49.073Z,5.63
2023-04-30T09:14:49.052Z,5.63
2023-04-30T09:15:49.103Z,5.63
2023-04-30T09:16:49.044Z,5.63
2023-04-30T09:17:49.077Z,5.63
2023-04-30T09:18:49.040Z,5.63
2023-04-30T09:19:49.032Z,5.63
2023-04-30T09:20:49.031Z,5.63
2023-04-30T09:21:49.034Z,5.63
2023-04-30T09:22:49.041Z,5.63
2023-04-30T09:23:49.045Z,5.63
2023-04-30T09:24:49.027Z,5.63
2023-04-30T09:25:49.014Z,5.63
2023-04-30T09:26:49.008Z,5.63
2023-04-30T09:27:49.006Z,5.63
2023-04-30T09:28:49.024Z,5.63
2023-04-30T09:29:49.008Z,5.63
2023-04-30T09:30:48.994Z,5.63
2023-04-30T09:31:49.089Z,5.63
2023-04-30T09:32:49.029Z,5.63
2023-04-30T09:33:48.984Z,5.63
2023-04-30T09:34:48.986Z,5.63
2023-04-30T09:35:48.994Z,5.63
2023-04-30T09:36:48.998Z,5.63
2023-04-30T09:37:48.978Z,5.63
2023-04-30T09:38:48.989Z,5.63
2023-04-30T09:39:49.006Z,5.63
2023-04-30T09:40:48.962Z,5.63
2023-04-30T09:41:48.981Z,5.63
2023-04-30T09:42:48.975Z,5.63
2023-04-30T09:43:48.975Z,5.63
2023-04-30T09:44:48.982Z,5.63
2023-04-30T09:45:48.966Z,5.63
2023-04-30T09:46:48.982Z,5.63
2023-04-30T09:47:49.014Z,5.63
2023-04-30T09:48:48.945Z,5.63
2023-04-30T09:49:48.950Z,5.63
2023-04-30T09:50:48.938Z,5.63
2023-04-30T09:51:48.930Z,5.63
2023-04-30T09:52:48.939Z,5.63
2023-04-30T09:53:48.927Z,11.25
2023-04-30T09:54:48.957Z,11.25
2023-04-30T09:55:48.943Z,5.63
2023-04-30T09:56:48.911Z,5.63
2023-04-30T09:57:48.921Z,5.63
2023-04-30T09:58:48.896Z,5.63
2023-04-30T09:59:48.895Z,5.63
2023-04-30T10:00:48.936Z,5.63
2023-04-30T10:01:48.914Z,5.63
2023-04-30T10:02:48.977Z,5.63
2023-04-30T10:03:48.919Z,5.63
2023-04-30T10:04:48.902Z,5.63
2023-04-30T10:05:48.898Z,5.63
2023-04-30T10:06:49.003Z,5.63
2023-04-30T10:07:48.883Z,5.63
2023-04-30T10:08:48.878Z,5.63
2023-04-30T10:09:48.878Z,5.63
2023-04-30T10:10:48.860Z,5.63
2023-04-30T10:11:48.897Z,5.63
2023-04-30T10:12:48.868Z,5.63
2023-04-30T10:13:48.858Z,5.63
2023-04-30T10:14:48.859Z,5.63
2023-04-30T10:15:48.859Z,5.63
2023-04-30T10:16:48.988Z,5.63
2023-04-30T10:17:48.909Z,5.63
2023-04-30T10:18:48.838Z,11.25
2023-04-30T10:19:48.848Z,5.63
2023-04-30T10:20:48.857Z,5.63
2023-04-30T10:21:48.832Z,5.63
2023-04-30T10:22:48.828Z,5.63
2023-04-30T10:23:48.831Z,5.63
2023-04-30T10:24:48.844Z,5.63
2023-04-30T10:25:48.844Z,5.63
2023-04-30T10:26:48.845Z,5.63
2023-04-30T10:27:48.819Z,5.63
2023-04-30T10:28:48.804Z,11.25
2023-04-30T10:29:48.817Z,11.25
2023-04-30T10:30:48.846Z,11.25
2023-04-30T10:31:48.835Z,11.25
2023-04-30T10:32:48.842Z,11.25
2023-04-30T10:33:48.785Z,5.63
2023-04-30T10:34:48.813Z,5.63
2023-04-30T10:35:48.786Z,5.63
2023-04-30T10:36:48.880Z,5.63
2023-04-30T10:37:48.769Z,11.25
2023-04-30T10:38:48.776Z,11.25
2023-04-30T10:39:48.790Z,11.25
2023-04-30T10:40:48.793Z,11.25
2023-04-30T10:41:48.758Z,11.25
2023-04-30T10:42:48.770Z,11.25
2023-04-30T10:43:48.805Z,11.25
2023-04-30T10:44:48.766Z,11.25
2023-04-30T10:45:48.801Z,11.25
2023-04-30T10:46:48.749Z,11.25
2023-04-30T10:47:48.809Z,11.25
2023-04-30T10:48:48.786Z,5.63
2023-04-30T10:49:48.734Z,5.63
2023-04-30T10:50:48.726Z,5.63
2023-04-30T10:51:48.739Z,5.63
2023-04-30T10:52:48.726Z,5.63
2023-04-30T10:53:48.718Z,5.63
2023-04-30T10:54:48.741Z,5.63
2023-04-30T10:55:48.700Z,5.63
2023-04-30T10:56:48.728Z,5.63
2023-04-30T10:57:48.698Z,11.25
2023-04-30T10:58:48.711Z,11.25
2023-04-30T10:59:48.810Z,11.25
2023-04-30T11:00:48.694Z,11.25
2023-04-30T11:01:48.735Z,11.25
2023-04-30T11:02:48.813Z,5.63
2023-04-30T11:03:48.685Z,11.25
2023-04-30T11:04:48.753Z,11.25
2023-04-30T11:05:48.669Z,11.25
2023-04-30T11:06:48.825Z,11.25
2023-04-30T11:07:48.668Z,5.63
2023-04-30T11:08:48.688Z,5.63
2023-04-30T11:09:48.682Z,5.63
2023-04-30T11:10:48.654Z,5.63
2023-04-30T11:11:48.648Z,5.63
2023-04-30T11:12:48.668Z,11.25
2023-04-30T11:13:48.640Z,11.25
2023-04-30T11:14:48.615Z,11.25
2023-04-30T11:15:48.800Z,11.25
2023-04-30T11:16:48.629Z,11.25
2023-04-30T11:17:48.647Z,11.25
2023-04-30T11:18:48.598Z,11.25
2023-04-30T11:19:48.651Z,11.25
2023-04-30T11:20:48.623Z,5.63
2023-04-30T11:21:48.590Z,5.63
2023-04-30T11:22:48.609Z,5.63
2023-04-30T11:23:48.581Z,5.63
2023-04-30T11:24:48.594Z,5.63
2023-04-30T11:25:48.570Z,5.63
2023-04-30T11:26:48.615Z,5.63
2023-04-30T11:27:48.572Z,5.63
2023-04-30T11:28:48.610Z,5.63
2023-04-30T11:29:48.560Z,5.63
2023-04-30T11:30:48.561Z,5.63
2023-04-30T11:31:48.608Z,5.63
2023-04-30T11:32:48.617Z,5.63
2023-04-30T11:33:48.554Z,11.25
2023-04-30T11:34:48.560Z,11.25
2023-04-30T11:35:48.527Z,11.25
2023-04-30T11:36:48.531Z,11.25
2023-04-30T11:37:48.529Z,11.25
2023-04-30T11:38:48.542Z,11.25
2023-04-30T11:39:48.523Z,11.25
2023-04-30T11:40:48.509Z,5.63
2023-04-30T11:41:48.510Z,5.63
2023-04-30T11:42:48.521Z,5.63
2023-04-30T11:43:48.520Z,5.63
2023-04-30T11:44:48.490Z,5.63
2023-04-30T11:45:48.498Z,5.63
2023-04-30T11:46:48.556Z,5.63
2023-04-30T11:47:48.590Z,5.63
2023-04-30T11:48:48.497Z,5.63
2023-04-30T11:49:48.487Z,5.63
2023-04-30T11:50:48.461Z,5.63
2023-04-30T11:51:48.493Z,5.63
2023-04-30T11:52:48.449Z,5.63
2023-04-30T11:53:48.448Z,5.63
2023-04-30T11:54:48.512Z,5.63
2023-04-30T11:55:48.462Z,5.63
2023-04-30T11:56:48.442Z,5.63
2023-04-30T11:57:48.437Z,5.63
2023-04-30T11:58:48.450Z,5.63
2023-04-30T11:59:48.434Z,5.63
2023-04-30T12:00:48.425Z,5.63
2023-04-30T12:01:48.472Z,5.63
2023-04-30T12:02:48.642Z,5.63
2023-04-30T12:03:48.645Z,5.63
2023-04-30T12:04:48.409Z,5.63
2023-04-30T12:05:48.414Z,5.63
2023-04-30T12:06:48.479Z,5.63
2023-04-30T12:07:48.403Z,5.63
2023-04-30T12:08:48.384Z,5.63
2023-04-30T12:09:48.384Z,5.63
2023-04-30T12:10:48.398Z,5.63
2023-04-30T12:11:48.369Z,5.63
2023-04-30T12:12:49.261Z,5.63
2023-04-30T12:13:48.370Z,5.63
2023-04-30T12:14:48.357Z,5.63
2023-04-30T12:15:48.363Z,5.63
2023-04-30T12:16:48.398Z,5.63
2023-04-30T12:17:48.388Z,5.63
2023-04-30T12:18:49.001Z,5.63
2023-04-30T12:19:48.367Z,5.63
2023-04-30T12:20:48.335Z,5.63
2023-04-30T12:21:48.335Z,5.63
2023-04-30T12:22:48.340Z,5.63
2023-04-30T12:23:48.333Z,11.25
2023-04-30T12:24:48.324Z,5.63
2023-04-30T12:25:48.331Z,11.25
2023-04-30T12:26:48.341Z,11.25
2023-04-30T12:27:48.301Z,11.25
2023-04-30T12:28:48.316Z,11.25
2023-04-30T12:29:48.312Z,11.25
2023-04-30T12:30:48.289Z,11.25
2023-04-30T12:31:48.378Z,5.63
2023-04-30T12:32:48.327Z,5.63
2023-04-30T12:33:48.289Z,5.63
2023-04-30T12:34:48.283Z,5.63
2023-04-30T12:35:48.300Z,5.63
2023-04-30T12:36:48.262Z,5.63
2023-04-30T12:37:48.269Z,5.63
2023-04-30T12:38:48.277Z,5.63
2023-04-30T12:39:48.257Z,5.63
2023-04-30T12:40:48.265Z,5.63
2023-04-30T12:41:48.245Z,5.63
2023-04-30T12:42:48.251Z,11.25
2023-04-30T12:43:48.253Z,11.25
2023-04-30T12:44:48.268Z,11.25
2023-04-30T12:45:48.385Z,11.25
2023-04-30T12:46:48.347Z,5.63
2023-04-30T12:47:48.301Z,5.63
2023-04-30T12:48:48.214Z,5.63
2023-04-30T12:49:48.219Z,5.63
2023-04-30T12:50:48.206Z,5.63
2023-04-30T12:51:48.238Z,5.63
2023-04-30T12:52:48.214Z,5.63
2023-04-30T12:53:48.188Z,5.63
2023-04-30T12:54:48.190Z,5.63
2023-04-30T12:55:48.183Z,5.63
2023-04-30T12:56:48.187Z,5.63
2023-04-30T12:57:48.197Z,5.63
2023-04-30T12:58:48.176Z,5.63
2023-04-30T12:59:48.181Z,5.63
2023-04-30T13:00:48.182Z,5.63
2023-04-30T13:01:48.224Z,5.63
2023-04-30T13:02:48.228Z,5.63
2023-04-30T13:03:48.223Z,5.63
2023-04-30T13:04:48.154Z,5.63
2023-04-30T13:05:48.143Z,5.63
2023-04-30T13:06:48.303Z,5.63
2023-04-30T13:07:48.164Z,5.63
2023-04-30T13:08:57.797Z,5.63
2023-04-30T13:09:48.158Z,5.63